Terminal Aerodrome Forecast
Issued by NWS Grand Forks, ND

Home | Current Version | Previous Version | Text Only | Print | Product List | Glossary Off
Versions: 1 2 3 4 5 6 7 8 9 10 11 12 13 14 15

000
FTUS43 KFGF 192300
TAFGFK
TAF
KGFK 192323Z 2000/2024 16005KT 1 1/2SM BR OVC003
      TEMPO 2006/2010 1/2SM FG
     FM202000 16007KT P6SM OVC008=

USA.gov is the U.S. government's official web portal to all federal, state and local government web resources and services.